Urbana, Arkansas
Current Conditions -  °F | °C
As of 3:53 PM on Tuesday 25 Nov 2014 (Local Time) from KELD Reporting Station
Clear Clear  
Wind Chill: 55°   Ceiling: Unl
Heat Index: 55°   Visibility: 10mi
Dew Point: 25°   Wind: 3mph
Humidity: 31%   Direction: 250°WSW
Pressure: 30.18"   Gusts: NA
Location:  33.16°N, 92.45°W
Report Text: KELD 252153Z AUTO 25003KT 10SM CLR 13/M04 A3018 RMK AO2 SLP220 T01281039
Loading
Personal Weather Stations






























Interactive Weather Map New forecast layout! Learn more

10-Day Weather Forecast

Advertisements
Track Severe Weather on mobile